sensor_id;sensor_type;location;lat;lon;timestamp;pressure;altitude;pressure_sealevel;temperature;humidity
13080;BME280;6606;49.154;9.280;2023-02-19T00:01:27;100194.75;;;9.25;100.00
13080;BME280;6606;49.154;9.280;2023-02-19T00:04:14;100187.19;;;9.40;100.00
13080;BME280;6606;49.154;9.280;2023-02-19T00:06:55;100187.06;;;9.43;100.00
13080;BME280;6606;49.154;9.280;2023-02-19T00:09:37;100192.38;;;9.43;100.00
13080;BME280;6606;49.154;9.280;2023-02-19T00:12:19;100198.47;;;9.45;100.00
13080;BME280;6606;49.154;9.280;2023-02-19T00:15:00;100198.34;;;9.48;100.00
13080;BME280;6606;49.154;9.280;2023-02-19T00:17:42;100204.53;;;9.47;100.00
13080;BME280;6606;49.154;9.280;2023-02-19T00:20:25;100206.88;;;9.56;100.00
13080;BME280;6606;49.154;9.280;2023-02-19T00:23:07;100209.25;;;9.62;100.00
13080;BME280;6606;49.154;9.280;2023-02-19T00:25:49;100211.72;;;9.68;100.00
13080;BME280;6606;49.154;9.280;2023-02-19T00:28:31;100210.31;;;9.58;100.00
13080;BME280;6606;49.154;9.280;2023-02-19T00:31:16;100196.41;;;9.53;100.00
13080;BME280;6606;49.154;9.280;2023-02-19T00:33:59;100205.72;;;9.63;100.00
13080;BME280;6606;49.154;9.280;2023-02-19T00:36:43;100191.78;;;9.58;100.00
13080;BME280;6606;49.154;9.280;2023-02-19T00:39:25;100175.56;;;9.67;100.00
13080;BME280;6606;49.154;9.280;2023-02-19T00:42:06;100179.06;;;9.68;100.00
13080;BME280;6606;49.154;9.280;2023-02-19T00:44:48;100176.03;;;9.55;100.00
13080;BME280;6606;49.154;9.280;2023-02-19T00:47:29;100179.59;;;9.54;100.00
13080;BME280;6606;49.154;9.280;2023-02-19T00:50:12;100174.28;;;9.54;100.00
13080;BME280;6606;49.154;9.280;2023-02-19T00:52:55;100164.16;;;9.42;100.00
13080;BME280;6606;49.154;9.280;2023-02-19T00:55:37;100165.53;;;9.52;100.00
13080;BME280;6606;49.154;9.280;2023-02-19T00:58:19;100159.09;;;9.59;100.00
13080;BME280;6606;49.154;9.280;2023-02-19T01:01:08;100110.06;;;9.51;100.00
13080;BME280;6606;49.154;9.280;2023-02-19T01:03:50;100146.84;;;9.57;100.00
13080;BME280;6606;49.154;9.280;2023-02-19T01:06:32;100150.34;;;9.57;100.00
13080;BME280;6606;49.154;9.280;2023-02-19T01:09:16;100160.16;;;9.55;100.00
13080;BME280;6606;49.154;9.280;2023-02-19T01:11:58;100153.78;;;9.61;100.00
13080;BME280;6606;49.154;9.280;2023-02-19T01:14:40;100148.06;;;9.48;100.00
13080;BME280;6606;49.154;9.280;2023-02-19T01:17:21;100150.91;;;9.65;100.00
13080;BME280;6606;49.154;9.280;2023-02-19T01:20:03;100158.28;;;9.57;100.00
13080;BME280;6606;49.154;9.280;2023-02-19T01:22:45;100159.16;;;9.58;100.00
13080;BME280;6606;49.154;9.280;2023-02-19T01:25:28;100151.16;;;9.59;100.00
13080;BME280;6606;49.154;9.280;2023-02-19T01:28:10;100151.97;;;9.61;100.00
13080;BME280;6606;49.154;9.280;2023-02-19T01:30:52;100136.16;;;9.60;100.00
13080;BME280;6606;49.154;9.280;2023-02-19T01:33:34;100146.00;;;9.56;100.00
13080;BME280;6606;49.154;9.280;2023-02-19T01:36:16;100126.31;;;9.63;100.00
13080;BME280;6606;49.154;9.280;2023-02-19T01:38:59;100129.75;;;9.65;100.00
13080;BME280;6606;49.154;9.280;2023-02-19T01:41:44;100126.31;;;9.63;100.00
13080;BME280;6606;49.154;9.280;2023-02-19T01:47:45;100137.69;;;9.65;100.00
13080;BME280;6606;49.154;9.280;2023-02-19T01:50:31;100138.88;;;9.58;100.00
13080;BME280;6606;49.154;9.280;2023-02-19T01:53:18;100131.84;;;9.57;100.00
13080;BME280;6606;49.154;9.280;2023-02-19T01:56:02;100136.91;;;9.63;100.00
13080;BME280;6606;49.154;9.280;2023-02-19T01:58:46;100123.75;;;9.60;100.00
13080;BME280;6606;49.154;9.280;2023-02-19T02:01:28;100126.50;;;9.59;100.00
13080;BME280;6606;49.154;9.280;2023-02-19T02:04:12;100123.34;;;9.49;100.00
13080;BME280;6606;49.154;9.280;2023-02-19T02:06:55;100124.19;;;9.50;100.00
13080;BME280;6606;49.154;9.280;2023-02-19T02:09:38;100131.50;;;9.66;100.00
13080;BME280;6606;49.154;9.280;2023-02-19T02:12:37;100115.47;;;9.48;100.00
13080;BME280;6606;49.154;9.280;2023-02-19T02:15:20;100102.75;;;9.34;100.00
13080;BME280;6606;49.154;9.280;2023-02-19T02:18:10;100101.56;;;9.42;100.00
13080;BME280;6606;49.154;9.280;2023-02-19T02:21:14;100092.63;;;9.45;100.00
13080;BME280;6606;49.154;9.280;2023-02-19T02:24:16;100090.22;;;9.39;100.00
13080;BME280;6606;49.154;9.280;2023-02-19T02:27:15;100099.69;;;9.44;100.00
13080;BME280;6606;49.154;9.280;2023-02-19T02:30:24;100095.38;;;9.42;100.00
13080;BME280;6606;49.154;9.280;2023-02-19T02:33:20;100100.63;;;9.43;100.00
13080;BME280;6606;49.154;9.280;2023-02-19T02:36:04;100098.34;;;9.34;100.00
13080;BME280;6606;49.154;9.280;2023-02-19T02:38:49;100095.88;;;9.30;100.00
13080;BME280;6606;49.154;9.280;2023-02-19T02:41:34;100101.03;;;9.33;100.00
13080;BME280;6606;49.154;9.280;2023-02-19T02:44:16;100095.63;;;9.36;100.00
13080;BME280;6606;49.154;9.280;2023-02-19T02:46:59;100098.22;;;9.37;100.00
13080;BME280;6606;49.154;9.280;2023-02-19T02:49:40;100088.63;;;9.35;100.00
13080;BME280;6606;49.154;9.280;2023-02-19T02:52:44;100092.69;;;9.43;100.00
13080;BME280;6606;49.154;9.280;2023-02-19T02:55:48;100095.19;;;9.46;100.00
13080;BME280;6606;49.154;9.280;2023-02-19T02:58:32;100091.03;;;9.41;100.00
13080;BME280;6606;49.154;9.280;2023-02-19T03:01:19;100091.88;;;9.41;100.00
13080;BME280;6606;49.154;9.280;2023-02-19T03:04:26;100090.84;;;9.45;100.00
13080;BME280;6606;49.154;9.280;2023-02-19T03:07:10;100084.56;;;9.48;100.00
13080;BME280;6606;49.154;9.280;2023-02-19T03:09:55;100077.66;;;9.44;100.00
13080;BME280;6606;49.154;9.280;2023-02-19T03:12:39;100081.84;;;9.50;100.00
13080;BME280;6606;49.154;9.280;2023-02-19T03:15:57;100077.53;;;9.47;100.00
13080;BME280;6606;49.154;9.280;2023-02-19T03:18:59;100072.38;;;9.44;100.00
13080;BME280;6606;49.154;9.280;2023-02-19T03:22:05;100071.47;;;9.45;100.00
13080;BME280;6606;49.154;9.280;2023-02-19T03:24:53;100073.44;;;9.40;100.00
13080;BME280;6606;49.154;9.280;2023-02-19T03:27:56;100085.25;;;9.53;100.00
13080;BME280;6606;49.154;9.280;2023-02-19T03:30:43;100075.66;;;9.51;100.00
13080;BME280;6606;49.154;9.280;2023-02-19T03:33:28;100080.78;;;9.55;100.00
13080;BME280;6606;49.154;9.280;2023-02-19T03:36:12;100075.47;;;9.55;100.00
13080;BME280;6606;49.154;9.280;2023-02-19T03:38:59;100074.91;;;9.47;100.00
13080;BME280;6606;49.154;9.280;2023-02-19T03:41:48;100079.66;;;9.61;100.00
13080;BME280;6606;49.154;9.280;2023-02-19T03:44:37;100077.06;;;9.59;100.00
13080;BME280;6606;49.154;9.280;2023-02-19T03:47:27;100082.34;;;9.59;100.00
13080;BME280;6606;49.154;9.280;2023-02-19T03:50:16;100089.38;;;9.60;100.00
13080;BME280;6606;49.154;9.280;2023-02-19T03:53:03;100085.59;;;9.44;100.00
13080;BME280;6606;49.154;9.280;2023-02-19T03:55:53;100095.00;;;9.53;100.00
13080;BME280;6606;49.154;9.280;2023-02-19T03:58:43;100095.03;;;9.51;100.00
13080;BME280;6606;49.154;9.280;2023-02-19T04:01:33;100095.41;;;9.64;100.00
13080;BME280;6606;49.154;9.280;2023-02-19T04:04:21;100098.50;;;9.53;100.00
13080;BME280;6606;49.154;9.280;2023-02-19T04:07:08;100108.38;;;9.48;100.00
13080;BME280;6606;49.154;9.280;2023-02-19T04:09:52;100111.88;;;9.49;100.00
13080;BME280;6606;49.154;9.280;2023-02-19T04:12:39;100111.03;;;9.48;100.00
13080;BME280;6606;49.154;9.280;2023-02-19T04:15:26;100125.16;;;9.47;100.00
13080;BME280;6606;49.154;9.280;2023-02-19T04:18:13;100116.66;;;9.39;100.00
13080;BME280;6606;49.154;9.280;2023-02-19T04:20:56;100116.66;;;9.39;100.00
13080;BME280;6606;49.154;9.280;2023-02-19T04:23:42;100122.84;;;9.39;100.00
13080;BME280;6606;49.154;9.280;2023-02-19T04:26:25;100132.53;;;9.39;100.00
13080;BME280;6606;49.154;9.280;2023-02-19T04:29:08;100138.81;;;9.36;100.00
13080;BME280;6606;49.154;9.280;2023-02-19T04:31:50;100146.25;;;9.50;100.00
13080;BME280;6606;49.154;9.280;2023-02-19T04:34:32;100153.28;;;9.50;100.00
13080;BME280;6606;49.154;9.280;2023-02-19T04:37:13;100150.16;;;9.40;100.00
13080;BME280;6606;49.154;9.280;2023-02-19T04:39:55;100143.34;;;9.33;100.00
13080;BME280;6606;49.154;9.280;2023-02-19T04:42:37;100155.91;;;9.28;100.00
13080;BME280;6606;49.154;9.280;2023-02-19T04:45:20;100150.72;;;9.24;100.00
13080;BME280;6606;49.154;9.280;2023-02-19T04:48:02;100147.97;;;9.28;100.00
13080;BME280;6606;49.154;9.280;2023-02-19T04:50:44;100146.38;;;9.23;100.00
13080;BME280;6606;49.154;9.280;2023-02-19T04:53:25;100148.13;;;9.23;100.00
13080;BME280;6606;49.154;9.280;2023-02-19T04:56:09;100148.78;;;9.30;100.00
13080;BME280;6606;49.154;9.280;2023-02-19T04:58:51;100131.41;;;9.22;100.00
13080;BME280;6606;49.154;9.280;2023-02-19T05:01:34;100150.31;;;9.12;100.00
13080;BME280;6606;49.154;9.280;2023-02-19T05:04:16;100126.06;;;9.24;100.00
13080;BME280;6606;49.154;9.280;2023-02-19T05:06:57;100130.00;;;9.12;100.00
13080;BME280;6606;49.154;9.280;2023-02-19T05:09:39;100120.94;;;9.19;100.00
13080;BME280;6606;49.154;9.280;2023-02-19T05:12:21;100097.00;;;9.22;100.00
13080;BME280;6606;49.154;9.280;2023-02-19T05:15:03;100132.44;;;9.18;100.00
13080;BME280;6606;49.154;9.280;2023-02-19T05:17:46;100125.00;;;9.28;100.00
13080;BME280;6606;49.154;9.280;2023-02-19T05:20:28;100131.63;;;9.40;100.00
13080;BME280;6606;49.154;9.280;2023-02-19T05:23:09;100137.03;;;9.37;100.00
13080;BME280;6606;49.154;9.280;2023-02-19T05:25:51;100127.25;;;9.39;100.00
13080;BME280;6606;49.154;9.280;2023-02-19T05:28:34;100126.97;;;9.23;100.00
13080;BME280;6606;49.154;9.280;2023-02-19T05:31:16;100128.91;;;9.18;100.00
13080;BME280;6606;49.154;9.280;2023-02-19T05:33:59;100138.31;;;9.27;100.00
13080;BME280;6606;49.154;9.280;2023-02-19T05:36:41;100136.91;;;9.16;100.00
13080;BME280;6606;49.154;9.280;2023-02-19T05:39:23;100149.00;;;9.23;100.00
13080;BME280;6606;49.154;9.280;2023-02-19T05:42:05;100141.84;;;9.25;100.00
13080;BME280;6606;49.154;9.280;2023-02-19T05:44:46;100133.03;;;9.27;100.00
13080;BME280;6606;49.154;9.280;2023-02-19T05:47:28;100142.53;;;9.31;100.00
13080;BME280;6606;49.154;9.280;2023-02-19T05:50:11;100138.19;;;9.30;100.00
13080;BME280;6606;49.154;9.280;2023-02-19T05:52:53;100153.94;;;9.33;100.00
13080;BME280;6606;49.154;9.280;2023-02-19T05:55:34;100158.41;;;9.31;100.00
13080;BME280;6606;49.154;9.280;2023-02-19T05:58:16;100155.50;;;9.38;100.00
13080;BME280;6606;49.154;9.280;2023-02-19T06:00:58;100161.06;;;9.54;100.00
13080;BME280;6606;49.154;9.280;2023-02-19T06:03:40;100162.31;;;9.44;100.00
13080;BME280;6606;49.154;9.280;2023-02-19T06:06:23;100165.91;;;9.43;100.00
13080;BME280;6606;49.154;9.280;2023-02-19T06:09:06;100160.44;;;9.48;100.00
13080;BME280;6606;49.154;9.280;2023-02-19T06:11:47;100154.88;;;9.32;100.00
13080;BME280;6606;49.154;9.280;2023-02-19T06:14:29;100165.91;;;9.43;100.00
13080;BME280;6606;49.154;9.280;2023-02-19T06:17:11;100163.84;;;9.51;100.00
13080;BME280;6606;49.154;9.280;2023-02-19T06:19:52;100166.72;;;9.45;100.00
13080;BME280;6606;49.154;9.280;2023-02-19T06:22:35;100167.63;;;9.44;100.00
13080;BME280;6606;49.154;9.280;2023-02-19T06:25:17;100172.75;;;9.49;100.00
13080;BME280;6606;49.154;9.280;2023-02-19T06:27:59;100170.75;;;9.55;100.00
13080;BME280;6606;49.154;9.280;2023-02-19T06:30:40;100171.53;;;9.57;100.00
13080;BME280;6606;49.154;9.280;2023-02-19T06:33:22;100174.09;;;9.37;100.00
13080;BME280;6606;49.154;9.280;2023-02-19T06:36:05;100186.34;;;9.39;100.00
13080;BME280;6606;49.154;9.280;2023-02-19T06:38:49;100189.03;;;9.38;100.00
13080;BME280;6606;49.154;9.280;2023-02-19T06:41:30;100188.78;;;9.44;100.00
13080;BME280;6606;49.154;9.280;2023-02-19T06:44:12;100188.47;;;9.53;100.00
13080;BME280;6606;49.154;9.280;2023-02-19T06:46:54;100192.00;;;9.52;100.00
13080;BME280;6606;49.154;9.280;2023-02-19T06:49:37;100194.72;;;9.51;100.00
13080;BME280;6606;49.154;9.280;2023-02-19T06:52:22;100211.59;;;9.48;100.00
13080;BME280;6606;49.154;9.280;2023-02-19T06:55:05;100201.00;;;9.48;100.00
13080;BME280;6606;49.154;9.280;2023-02-19T06:57:47;100208.13;;;9.46;100.00
13080;BME280;6606;49.154;9.280;2023-02-19T07:00:30;100216.50;;;9.57;100.00
13080;BME280;6606;49.154;9.280;2023-02-19T07:03:12;100216.22;;;9.65;100.00
13080;BME280;6606;49.154;9.280;2023-02-19T07:05:54;100222.56;;;9.61;100.00
13080;BME280;6606;49.154;9.280;2023-02-19T07:08:39;100224.75;;;9.73;100.00
13080;BME280;6606;49.154;9.280;2023-02-19T07:11:22;100228.03;;;9.80;100.00
13080;BME280;6606;49.154;9.280;2023-02-19T07:14:06;100235.41;;;9.72;100.00
13080;BME280;6606;49.154;9.280;2023-02-19T07:16:48;100245.06;;;9.73;100.00
13080;BME280;6606;49.154;9.280;2023-02-19T07:19:30;100247.38;;;9.82;100.00
13080;BME280;6606;49.154;9.280;2023-02-19T07:22:12;100253.25;;;9.90;100.00
13080;BME280;6606;49.154;9.280;2023-02-19T07:24:53;100254.25;;;9.86;100.00
13080;BME280;6606;49.154;9.280;2023-02-19T07:27:37;100259.28;;;9.94;100.00
13080;BME280;6606;49.154;9.280;2023-02-19T07:30:19;100261.50;;;10.04;100.00
13080;BME280;6606;49.154;9.280;2023-02-19T07:33:01;100263.56;;;10.20;100.00
13080;BME280;6606;49.154;9.280;2023-02-19T07:35:44;100262.19;;;10.09;100.00
13080;BME280;6606;49.154;9.280;2023-02-19T07:38:26;100258.44;;;10.15;100.00
13080;BME280;6606;49.154;9.280;2023-02-19T07:41:08;100275.88;;;10.21;100.00
13080;BME280;6606;49.154;9.280;2023-02-19T07:43:52;100271.50;;;10.20;100.00
13080;BME280;6606;49.154;9.280;2023-02-19T07:46:34;100270.56;;;10.21;100.00
13080;BME280;6606;49.154;9.280;2023-02-19T07:49:15;100278.78;;;10.15;100.00
13080;BME280;6606;49.154;9.280;2023-02-19T07:51:57;100277.22;;;10.09;100.00
13080;BME280;6606;49.154;9.280;2023-02-19T07:54:39;100282.91;;;10.22;100.00
13080;BME280;6606;49.154;9.280;2023-02-19T07:57:21;100274.78;;;10.26;100.00
13080;BME280;6606;49.154;9.280;2023-02-19T08:00:05;100288.91;;;10.27;100.00
13080;BME280;6606;49.154;9.280;2023-02-19T08:02:53;100284.00;;;10.40;100.00
13080;BME280;6606;49.154;9.280;2023-02-19T08:05:41;100286.47;;;10.21;100.00
13080;BME280;6606;49.154;9.280;2023-02-19T08:08:24;100279.22;;;10.26;100.00
13080;BME280;6606;49.154;9.280;2023-02-19T08:11:06;100283.81;;;10.44;100.00
13080;BME280;6606;49.154;9.280;2023-02-19T08:14:05;100283.81;;;10.44;100.00
13080;BME280;6606;49.154;9.280;2023-02-19T08:16:49;100286.84;;;10.57;100.00
13080;BME280;6606;49.154;9.280;2023-02-19T08:19:30;100288.63;;;10.56;100.00
13080;BME280;6606;49.154;9.280;2023-02-19T08:22:12;100303.81;;;10.75;100.00
13080;BME280;6606;49.154;9.280;2023-02-19T08:24:55;100303.28;;;10.87;100.00
13080;BME280;6606;49.154;9.280;2023-02-19T08:27:37;100302.41;;;11.09;100.00
13080;BME280;6606;49.154;9.280;2023-02-19T08:30:19;100301.78;;;11.43;100.00
13080;BME280;6606;49.154;9.280;2023-02-19T08:33:03;100301.22;;;11.36;100.00
13080;BME280;6606;49.154;9.280;2023-02-19T08:35:46;100300.00;;;11.23;100.00
13080;BME280;6606;49.154;9.280;2023-02-19T08:38:28;100298.94;;;11.07;100.00
13080;BME280;6606;49.154;9.280;2023-02-19T08:41:15;100296.28;;;11.27;100.00
13080;BME280;6606;49.154;9.280;2023-02-19T08:43:57;100304.59;;;11.40;100.00
13080;BME280;6606;49.154;9.280;2023-02-19T08:46:39;100305.31;;;11.23;100.00
13080;BME280;6606;49.154;9.280;2023-02-19T08:49:25;100314.31;;;11.19;100.00
13080;BME280;6606;49.154;9.280;2023-02-19T08:52:07;100318.03;;;11.76;100.00
13080;BME280;6606;49.154;9.280;2023-02-19T08:54:48;100307.47;;;11.75;100.00
13080;BME280;6606;49.154;9.280;2023-02-19T08:57:30;100314.34;;;11.60;100.00
13080;BME280;6606;49.154;9.280;2023-02-19T09:00:13;100328.13;;;11.68;100.00
13080;BME280;6606;49.154;9.280;2023-02-19T09:02:57;100340.22;;;11.75;100.00
13080;BME280;6606;49.154;9.280;2023-02-19T09:05:40;100333.53;;;11.87;100.00
13080;BME280;6606;49.154;9.280;2023-02-19T09:08:22;100333.44;;;11.48;100.00
13080;BME280;6606;49.154;9.280;2023-02-19T09:11:04;100348.59;;;11.86;100.00
13080;BME280;6606;49.154;9.280;2023-02-19T09:13:47;100340.91;;;11.60;100.00
13080;BME280;6606;49.154;9.280;2023-02-19T09:16:29;100354.41;;;11.74;100.00
13080;BME280;6606;49.154;9.280;2023-02-19T09:19:12;100357.59;;;11.82;100.00
13080;BME280;6606;49.154;9.280;2023-02-19T09:21:55;100367.72;;;11.95;100.00
13080;BME280;6606;49.154;9.280;2023-02-19T09:24:37;100356.25;;;12.13;100.00
13080;BME280;6606;49.154;9.280;2023-02-19T09:27:19;100356.81;;;12.20;100.00
13080;BME280;6606;49.154;9.280;2023-02-19T09:30:01;100362.72;;;12.07;100.00
13080;BME280;6606;49.154;9.280;2023-02-19T09:32:44;100375.66;;;12.15;100.00
13080;BME280;6606;49.154;9.280;2023-02-19T09:35:26;100378.06;;;12.01;100.00
13080;BME280;6606;49.154;9.280;2023-02-19T09:38:09;100388.09;;;11.94;100.00
13080;BME280;6606;49.154;9.280;2023-02-19T09:40:50;100380.63;;;11.82;100.00
13080;BME280;6606;49.154;9.280;2023-02-19T09:43:32;100378.19;;;11.57;100.00
13080;BME280;6606;49.154;9.280;2023-02-19T09:46:23;100395.72;;;11.81;100.00
13080;BME280;6606;49.154;9.280;2023-02-19T09:49:10;100389.09;;;11.92;100.00
13080;BME280;6606;49.154;9.280;2023-02-19T09:51:57;100407.66;;;11.71;100.00
13080;BME280;6606;49.154;9.280;2023-02-19T09:54:42;100387.88;;;11.78;100.00
13080;BME280;6606;49.154;9.280;2023-02-19T09:57:29;100400.50;;;11.73;100.00
13080;BME280;6606;49.154;9.280;2023-02-19T10:00:20;100403.31;;;11.91;100.00
13080;BME280;6606;49.154;9.280;2023-02-19T10:03:04;100401.69;;;11.66;100.00
13080;BME280;6606;49.154;9.280;2023-02-19T10:05:47;100395.06;;;11.76;100.00
13080;BME280;6606;49.154;9.280;2023-02-19T10:08:33;100393.72;;;11.66;100.00
13080;BME280;6606;49.154;9.280;2023-02-19T10:11:21;100403.06;;;11.75;100.00
13080;BME280;6606;49.154;9.280;2023-02-19T10:14:06;100413.34;;;11.41;100.00
13080;BME280;6606;49.154;9.280;2023-02-19T10:16:49;100420.25;;;11.45;100.00
13080;BME280;6606;49.154;9.280;2023-02-19T10:19:31;100425.16;;;11.34;100.00
13080;BME280;6606;49.154;9.280;2023-02-19T10:22:13;100412.94;;;11.30;100.00
13080;BME280;6606;49.154;9.280;2023-02-19T10:24:55;100423.56;;;11.51;100.00
13080;BME280;6606;49.154;9.280;2023-02-19T10:27:39;100415.63;;;11.51;100.00
13080;BME280;6606;49.154;9.280;2023-02-19T10:30:23;100417.94;;;11.38;100.00
13080;BME280;6606;49.154;9.280;2023-02-19T10:33:08;100420.78;;;11.33;100.00
13080;BME280;6606;49.154;9.280;2023-02-19T10:35:55;100425.00;;;11.17;100.00
13080;BME280;6606;49.154;9.280;2023-02-19T10:38:39;100426.00;;;11.35;100.00
13080;BME280;6606;49.154;9.280;2023-02-19T10:41:26;100432.66;;;11.67;100.00
13080;BME280;6606;49.154;9.280;2023-02-19T10:44:14;100436.56;;;11.79;100.00
13080;BME280;6606;49.154;9.280;2023-02-19T10:46:58;100450.75;;;11.57;100.00
13080;BME280;6606;49.154;9.280;2023-02-19T10:49:44;100434.72;;;11.59;100.00
13080;BME280;6606;49.154;9.280;2023-02-19T10:52:29;100439.59;;;11.49;100.00
13080;BME280;6606;49.154;9.280;2023-02-19T10:55:15;100450.19;;;11.27;100.00
13080;BME280;6606;49.154;9.280;2023-02-19T10:57:57;100446.25;;;11.37;100.00
13080;BME280;6606;49.154;9.280;2023-02-19T11:01:15;100451.56;;;11.37;100.00
13080;BME280;6606;49.154;9.280;2023-02-19T11:04:14;100441.69;;;11.19;100.00
13080;BME280;6606;49.154;9.280;2023-02-19T11:06:56;100446.63;;;11.28;100.00
13080;BME280;6606;49.154;9.280;2023-02-19T11:09:40;100451.41;;;11.20;100.00
13080;BME280;6606;49.154;9.280;2023-02-19T11:12:26;100439.59;;;11.27;100.00
13080;BME280;6606;49.154;9.280;2023-02-19T11:15:19;100449.84;;;11.36;100.00
13080;BME280;6606;49.154;9.280;2023-02-19T11:18:14;100453.03;;;11.44;100.00
13080;BME280;6606;49.154;9.280;2023-02-19T11:21:02;100450.88;;;11.54;100.00
13080;BME280;6606;49.154;9.280;2023-02-19T11:23:45;100450.59;;;12.03;100.00
13080;BME280;6606;49.154;9.280;2023-02-19T11:26:30;100457.19;;;11.94;100.00
13080;BME280;6606;49.154;9.280;2023-02-19T11:29:18;100459.47;;;12.22;100.00
13080;BME280;6606;49.154;9.280;2023-02-19T11:32:23;100459.63;;;12.19;100.00
13080;BME280;6606;49.154;9.280;2023-02-19T11:35:15;100461.03;;;12.07;100.00
13080;BME280;6606;49.154;9.280;2023-02-19T11:37:59;100461.56;;;12.16;100.00
13080;BME280;6606;49.154;9.280;2023-02-19T11:40:44;100469.09;;;12.25;100.00
13080;BME280;6606;49.154;9.280;2023-02-19T11:43:49;100470.09;;;12.43;100.00
13080;BME280;6606;49.154;9.280;2023-02-19T11:46:43;100483.50;;;12.60;100.00
13080;BME280;6606;49.154;9.280;2023-02-19T11:49:34;100475.00;;;12.52;100.00
13080;BME280;6606;49.154;9.280;2023-02-19T11:52:28;100486.97;;;12.62;100.00
13080;BME280;6606;49.154;9.280;2023-02-19T11:55:19;100465.09;;;12.56;100.00
13080;BME280;6606;49.154;9.280;2023-02-19T11:58:16;100470.66;;;12.89;100.00
13080;BME280;6606;49.154;9.280;2023-02-19T12:01:09;100465.22;;;13.09;100.00
13080;BME280;6606;49.154;9.280;2023-02-19T12:04:19;100471.13;;;12.59;100.00
13080;BME280;6606;49.154;9.280;2023-02-19T12:07:14;100450.44;;;12.66;100.00
13080;BME280;6606;49.154;9.280;2023-02-19T12:10:10;100451.13;;;12.69;100.00
13080;BME280;6606;49.154;9.280;2023-02-19T12:13:03;100462.91;;;13.02;100.00
13080;BME280;6606;49.154;9.280;2023-02-19T12:15:59;100452.16;;;13.41;100.00
13080;BME280;6606;49.154;9.280;2023-02-19T12:19:04;100449.09;;;13.85;100.00
13080;BME280;6606;49.154;9.280;2023-02-19T12:22:02;100449.78;;;14.39;100.00
13080;BME280;6606;49.154;9.280;2023-02-19T12:28:03;100449.97;;;13.32;100.00
13080;BME280;6606;49.154;9.280;2023-02-19T12:31:01;100441.03;;;13.33;100.00
13080;BME280;6606;49.154;9.280;2023-02-19T12:34:00;100439.22;;;13.33;100.00
13080;BME280;6606;49.154;9.280;2023-02-19T12:36:52;100440.84;;;13.55;100.00
13080;BME280;6606;49.154;9.280;2023-02-19T12:39:41;100452.91;;;13.07;100.00
13080;BME280;6606;49.154;9.280;2023-02-19T12:42:39;100455.59;;;12.88;100.00
13080;BME280;6606;49.154;9.280;2023-02-19T12:45:31;100460.56;;;12.58;100.00
13080;BME280;6606;49.154;9.280;2023-02-19T12:48:22;100456.31;;;12.72;100.00
13080;BME280;6606;49.154;9.280;2023-02-19T12:51:16;100457.25;;;12.71;100.00
13080;BME280;6606;49.154;9.280;2023-02-19T12:54:20;100450.72;;;12.79;100.00
13080;BME280;6606;49.154;9.280;2023-02-19T12:57:13;100460.34;;;13.00;100.00
13080;BME280;6606;49.154;9.280;2023-02-19T13:00:00;100456.75;;;12.82;100.00
13080;BME280;6606;49.154;9.280;2023-02-19T13:02:52;100449.72;;;12.81;100.00
13080;BME280;6606;49.154;9.280;2023-02-19T13:05:43;100448.63;;;12.66;100.00
13080;BME280;6606;49.154;9.280;2023-02-19T13:08:30;100461.19;;;12.44;100.00
13080;BME280;6606;49.154;9.280;2023-02-19T13:11:18;100450.13;;;12.72;100.00
13080;BME280;6606;49.154;9.280;2023-02-19T13:14:05;100457.91;;;12.76;100.00
13080;BME280;6606;49.154;9.280;2023-02-19T13:16:57;100461.91;;;13.04;100.00
13080;BME280;6606;49.154;9.280;2023-02-19T13:19:43;100455.22;;;13.33;100.00
13080;BME280;6606;49.154;9.280;2023-02-19T13:22:34;100457.59;;;13.39;100.00
13080;BME280;6606;49.154;9.280;2023-02-19T13:25:44;100462.72;;;13.06;100.00
13080;BME280;6606;49.154;9.280;2023-02-19T13:28:44;100441.50;;;12.86;100.00
13080;BME280;6606;49.154;9.280;2023-02-19T13:31:43;100439.06;;;13.00;100.00
13080;BME280;6606;49.154;9.280;2023-02-19T13:34:44;100437.47;;;12.96;100.00
13080;BME280;6606;49.154;9.280;2023-02-19T13:37:31;100432.31;;;12.74;100.00
13080;BME280;6606;49.154;9.280;2023-02-19T13:40:23;100429.84;;;13.07;100.00
13080;BME280;6606;49.154;9.280;2023-02-19T13:43:21;100425.88;;;13.52;100.00
13080;BME280;6606;49.154;9.280;2023-02-19T13:46:05;100432.13;;;13.15;100.00
13080;BME280;6606;49.154;9.280;2023-02-19T13:52:46;100408.31;;;12.75;100.00
13080;BME280;6606;49.154;9.280;2023-02-19T13:55:52;100404.84;;;12.73;100.00
13080;BME280;6606;49.154;9.280;2023-02-19T13:58:52;100407.06;;;12.64;100.00
13080;BME280;6606;49.154;9.280;2023-02-19T14:02:22;100408.88;;;12.82;100.00
13080;BME280;6606;49.154;9.280;2023-02-19T14:05:08;100413.47;;;12.79;100.00
13080;BME280;6606;49.154;9.280;2023-02-19T14:07:53;100421.38;;;12.61;100.00
13080;BME280;6606;49.154;9.280;2023-02-19T14:10:57;100427.13;;;12.71;100.00
13080;BME280;6606;49.154;9.280;2023-02-19T14:13:58;100427.69;;;12.77;100.00
13080;BME280;6606;49.154;9.280;2023-02-19T14:16:51;100426.28;;;12.89;100.00
13080;BME280;6606;49.154;9.280;2023-02-19T14:19:44;100431.22;;;12.97;100.00
13080;BME280;6606;49.154;9.280;2023-02-19T14:22:59;100453.16;;;12.64;100.00
13080;BME280;6606;49.154;9.280;2023-02-19T14:25:48;100443.78;;;12.37;100.00
13080;BME280;6606;49.154;9.280;2023-02-19T14:28:38;100455.25;;;12.18;100.00
13080;BME280;6606;49.154;9.280;2023-02-19T14:31:26;100458.03;;;12.15;100.00
13080;BME280;6606;49.154;9.280;2023-02-19T14:34:14;100459.75;;;12.16;100.00
13080;BME280;6606;49.154;9.280;2023-02-19T14:36:59;100469.91;;;12.27;100.00
13080;BME280;6606;49.154;9.280;2023-02-19T14:39:43;100474.66;;;12.20;100.00
13080;BME280;6606;49.154;9.280;2023-02-19T14:42:26;100459.28;;;12.27;100.00
13080;BME280;6606;49.154;9.280;2023-02-19T14:45:14;100465.72;;;12.21;100.00
13080;BME280;6606;49.154;9.280;2023-02-19T14:47:57;100474.41;;;12.25;100.00